KPVF

Placerville Airport

Placerville, California, USA
METAR KPVF 191835Z AUTO 28006KT 10SM CLR 23/01 A2997 RMK AO1
Observed Flight Rules
Sep-19 @ 18:35 UTC (16 minutes ago) Visual Flight Rules
Wind Visibility Clouds
280° at 6 knots 10 miles
  • Clear skies
Temperatures Readings
Current 23°C / 73°F
Dewpoint 1°C / 34°F
Humidity 23%
Altimeter 29.97" Hg
Pressure 1015 hPa
Elevation 789
METAR KPVF 191835Z AUTO 28006KT 10SM CLR 23/01 A2997 RMK AO1
Observed Flight Rules
Sep-19 @ 18:35 UTC
(16 minutes ago)
VFR
Wind Visibility
280° at 6 knots 10 miles
Clouds
  • Clear skies
Temperature Dewpoint
23°C / 73°F 1°C / 34°F
Humidity Altimeter Pressure
23% 29.97" Hg 1015 hPa